createdAt,value
2023-02-05T00:01:43.663Z,-0.32
2023-02-05T00:04:12.622Z,-0.42
2023-02-05T00:06:40.328Z,-0.46
2023-02-05T00:09:08.059Z,-0.51
2023-02-05T00:11:35.694Z,-0.56
2023-02-05T00:14:03.356Z,-0.58
2023-02-05T00:16:31.194Z,-0.53
2023-02-05T00:18:58.883Z,-0.51
2023-02-05T00:21:28.150Z,-0.49
2023-02-05T00:23:55.774Z,-0.46
2023-02-05T00:26:23.414Z,-0.45
2023-02-05T00:28:51.037Z,-0.48
2023-02-05T00:31:21.109Z,-0.49
2023-02-05T00:33:49.946Z,-0.48
2023-02-05T00:36:18.260Z,-0.57
2023-02-05T00:38:47.663Z,-0.70
2023-02-05T00:41:16.117Z,-0.78
2023-02-05T00:43:44.066Z,-0.90
2023-02-05T00:46:12.755Z,-0.97
2023-02-05T00:48:40.921Z,-0.95
2023-02-05T00:51:08.720Z,-0.91
2023-02-05T00:53:36.367Z,-1.01
2023-02-05T00:56:05.823Z,-1.06
2023-02-05T00:58:33.656Z,-1.02
2023-02-05T01:01:01.499Z,-1.00
2023-02-05T01:03:29.299Z,-1.01
2023-02-05T01:05:57.061Z,-0.99
2023-02-05T01:08:24.969Z,-0.98
2023-02-05T01:10:52.630Z,-0.95
2023-02-05T01:13:21.623Z,-0.96
2023-02-05T01:15:49.342Z,-0.96
2023-02-05T01:18:17.118Z,-0.96
2023-02-05T01:20:45.216Z,-0.96
2023-02-05T01:23:13.135Z,-1.06
2023-02-05T01:25:40.849Z,-1.20
2023-02-05T01:28:08.479Z,-1.26
2023-02-05T01:30:37.615Z,-1.28
2023-02-05T01:33:05.878Z,-1.35
2023-02-05T01:35:33.769Z,-1.40
2023-02-05T01:38:01.618Z,-1.41
2023-02-05T01:40:29.249Z,-1.44
2023-02-05T01:42:56.915Z,-1.48
2023-02-05T01:45:50.889Z,-1.43
2023-02-05T01:48:22.438Z,-1.42
2023-02-05T01:50:52.895Z,-1.45
2023-02-05T01:53:23.196Z,-1.53
2023-02-05T01:55:53.454Z,-1.61
2023-02-05T01:58:24.246Z,-1.58
2023-02-05T02:00:53.232Z,-1.60
2023-02-05T02:03:21.097Z,-1.58
2023-02-05T02:05:48.750Z,-1.60
2023-02-05T02:08:16.392Z,-1.59
2023-02-05T02:10:44.704Z,-1.61
2023-02-05T02:13:13.764Z,-1.59
2023-02-05T02:15:41.504Z,-1.57
2023-02-05T02:18:28.732Z,-1.53
2023-02-05T02:21:20.996Z,-1.48
2023-02-05T02:23:53.966Z,-1.45
2023-02-05T02:26:33.521Z,-1.52
2023-02-05T02:29:03.857Z,-1.55
2023-02-05T02:31:33.504Z,-1.54
2023-02-05T02:34:03.304Z,-1.53
2023-02-05T02:36:33.873Z,-1.51
2023-02-05T02:39:04.764Z,-1.56
2023-02-05T02:41:37.298Z,-1.60
2023-02-05T02:44:08.592Z,-1.64
2023-02-05T02:46:40.282Z,-1.68
2023-02-05T02:49:10.806Z,-1.66
2023-02-05T02:51:39.706Z,-1.62
2023-02-05T02:54:09.511Z,-1.60
2023-02-05T02:56:38.705Z,-1.64
2023-02-05T02:59:10.131Z,-1.67
2023-02-05T03:01:42.585Z,-1.75
2023-02-05T03:04:13.235Z,-1.73
2023-02-05T03:06:43.448Z,-1.66
2023-02-05T03:09:13.531Z,-1.66
2023-02-05T03:11:41.329Z,-1.66
2023-02-05T03:14:10.377Z,-1.70
2023-02-05T03:16:38.154Z,-1.71
2023-02-05T03:19:06.377Z,-1.71
2023-02-05T03:21:38.080Z,-1.74
2023-02-05T03:24:06.338Z,-1.74
2023-02-05T03:26:35.989Z,-1.77
2023-02-05T03:29:07.724Z,-1.90
2023-02-05T03:31:43.915Z,-2.03
2023-02-05T03:34:21.068Z,-2.03
2023-02-05T03:36:56.777Z,-2.04
2023-02-05T03:39:30.676Z,-2.05
2023-02-05T03:42:11.122Z,-2.09
2023-02-05T03:45:27.247Z,-2.06
2023-02-05T03:48:10.764Z,-2.03
2023-02-05T03:50:41.459Z,-2.14
2023-02-05T03:53:15.360Z,-2.23
2023-02-05T03:55:46.750Z,-2.22
2023-02-05T03:58:16.736Z,-2.18
2023-02-05T04:00:44.633Z,-2.28
2023-02-05T04:03:13.751Z,-2.31
2023-02-05T04:05:41.372Z,-2.30
2023-02-05T04:08:09.075Z,-2.32
2023-02-05T04:10:36.704Z,-2.33
2023-02-05T04:13:04.477Z,-2.32
2023-02-05T04:15:32.402Z,-2.27
2023-02-05T04:18:00.182Z,-2.26
2023-02-05T04:20:29.224Z,-2.23
2023-02-05T04:22:56.886Z,-2.28
2023-02-05T04:25:24.533Z,-2.28
2023-02-05T04:27:52.269Z,-2.29
2023-02-05T04:30:20.179Z,-2.34
2023-02-05T04:32:47.813Z,-2.37
2023-02-05T04:35:15.447Z,-2.38
2023-02-05T04:37:44.402Z,-2.38
2023-02-05T04:40:12.585Z,-2.49
2023-02-05T04:42:40.156Z,-2.48
2023-02-05T04:45:08.607Z,-2.51
2023-02-05T04:47:36.574Z,-2.49
2023-02-05T04:50:04.486Z,-2.52
2023-02-05T04:52:32.097Z,-2.56
2023-02-05T04:55:01.069Z,-2.59
2023-02-05T04:57:28.776Z,-2.63
2023-02-05T04:59:56.391Z,-2.65
2023-02-05T05:02:24.426Z,-2.67
2023-02-05T05:04:52.082Z,-2.71
2023-02-05T05:07:19.692Z,-2.74
2023-02-05T05:09:47.329Z,-2.74
2023-02-05T05:12:16.268Z,-2.75
2023-02-05T05:14:44.009Z,-2.74
2023-02-05T05:17:13.266Z,-2.75
2023-02-05T05:19:40.895Z,-2.81
2023-02-05T05:22:08.521Z,-2.80
2023-02-05T05:24:36.132Z,-2.78
2023-02-05T05:27:03.693Z,-2.80
2023-02-05T05:29:32.704Z,-2.85
2023-02-05T05:32:00.385Z,-2.87
2023-02-05T05:34:28.101Z,-2.91
2023-02-05T05:36:55.677Z,-2.91
2023-02-05T05:39:41.012Z,-2.95
2023-02-05T05:42:26.387Z,-2.92
2023-02-05T05:44:55.346Z,-2.90
2023-02-05T05:47:23.024Z,-2.89
2023-02-05T05:49:50.628Z,-2.89
2023-02-05T05:52:18.334Z,-2.89
2023-02-05T05:54:46.852Z,-2.92
2023-02-05T05:57:14.454Z,-2.93
2023-02-05T05:59:42.111Z,-2.93
2023-02-05T06:02:11.189Z,-2.98
2023-02-05T06:04:38.887Z,-3.02
2023-02-05T06:07:06.685Z,-3.05
2023-02-05T06:09:34.360Z,-3.06
2023-02-05T06:12:02.050Z,-3.05
2023-02-05T06:14:29.718Z,-3.06
2023-02-05T06:16:57.357Z,-3.06
2023-02-05T06:19:26.367Z,-3.06
2023-02-05T06:21:54.016Z,-3.06
2023-02-05T06:24:21.679Z,-3.06
2023-02-05T06:26:49.315Z,-3.07
2023-02-05T06:29:16.933Z,-3.09
2023-02-05T06:31:44.684Z,-3.08
2023-02-05T06:34:12.428Z,-3.06
2023-02-05T06:36:41.390Z,-3.07
2023-02-05T06:39:09.071Z,-3.05
2023-02-05T06:41:36.670Z,-3.02
2023-02-05T06:44:05.185Z,-3.04
2023-02-05T06:46:32.871Z,-3.08
2023-02-05T06:49:04.404Z,-3.07
2023-02-05T06:51:32.104Z,-3.10
2023-02-05T06:54:02.472Z,-3.11
2023-02-05T06:56:30.116Z,-3.12
2023-02-05T06:58:57.785Z,-3.11
2023-02-05T07:01:25.403Z,-3.12
2023-02-05T07:03:56.164Z,-3.11
2023-02-05T07:06:24.483Z,-3.10
2023-02-05T07:08:52.196Z,-3.07
2023-02-05T07:11:21.555Z,-3.08
2023-02-05T07:13:49.324Z,-3.09
2023-02-05T07:16:17.043Z,-3.09
2023-02-05T07:18:44.677Z,-3.07
2023-02-05T07:21:16.010Z,-3.03
2023-02-05T07:23:43.912Z,-3.00
2023-02-05T07:26:13.758Z,-2.97
2023-02-05T07:28:43.493Z,-2.90
2023-02-05T07:31:15.160Z,-2.84
2023-02-05T07:33:43.052Z,-2.77
2023-02-05T07:36:13.460Z,-2.73
2023-02-05T07:38:41.469Z,-2.68
2023-02-05T07:41:10.773Z,-2.59
2023-02-05T07:43:39.460Z,-2.58
2023-02-05T07:46:10.088Z,-2.53
2023-02-05T07:48:38.122Z,-2.44
2023-02-05T07:51:06.471Z,-2.34
2023-02-05T07:53:34.355Z,-2.24
2023-02-05T07:56:04.498Z,-2.16
2023-02-05T07:58:32.113Z,-2.12
2023-02-05T08:01:04.586Z,-2.05
2023-02-05T08:03:33.899Z,-1.97
2023-02-05T08:06:05.337Z,-1.87
2023-02-05T08:08:33.308Z,-1.81
2023-02-05T08:11:02.853Z,-1.72
2023-02-05T08:13:30.720Z,-1.61
2023-02-05T08:15:58.411Z,-1.52
2023-02-05T08:18:26.351Z,-1.39
2023-02-05T08:20:55.837Z,-1.28
2023-02-05T08:23:23.807Z,-1.19
2023-02-05T08:25:54.779Z,-1.09
2023-02-05T08:28:22.462Z,-1.03
2023-02-05T08:30:50.205Z,-0.93
2023-02-05T08:33:18.025Z,-0.88
2023-02-05T08:35:45.970Z,-0.76
2023-02-05T08:38:14.878Z,-0.63
2023-02-05T08:40:42.677Z,-0.56
2023-02-05T08:43:10.309Z,-0.48
2023-02-05T08:45:38.216Z,-0.34
2023-02-05T08:48:05.951Z,-0.22
2023-02-05T08:50:33.588Z,-0.12
2023-02-05T08:53:01.330Z,-0.01
2023-02-05T08:55:30.336Z,0.14
2023-02-05T08:57:58.037Z,0.20
2023-02-05T09:00:25.768Z,0.32
2023-02-05T09:02:53.523Z,0.36
2023-02-05T09:05:24.108Z,0.48
2023-02-05T09:07:51.734Z,0.65
2023-02-05T09:10:19.744Z,0.82
2023-02-05T09:12:49.514Z,0.95
2023-02-05T09:15:17.138Z,1.12
2023-02-05T09:17:45.596Z,1.24
2023-02-05T09:20:13.658Z,1.34
2023-02-05T09:22:41.319Z,1.44
2023-02-05T09:25:09.623Z,1.56
2023-02-05T09:27:38.851Z,1.62
2023-02-05T09:30:09.887Z,1.70
2023-02-05T09:32:37.505Z,1.76
2023-02-05T09:35:05.056Z,1.85
2023-02-05T09:37:32.659Z,1.99
2023-02-05T09:42:58.300Z,1.98
2023-02-05T09:45:51.892Z,1.90
2023-02-05T09:48:46.684Z,1.95
2023-02-05T09:51:14.292Z,1.99
2023-02-05T09:53:44.184Z,1.94
2023-02-05T09:56:15.766Z,1.99
2023-02-05T09:58:46.149Z,2.13
2023-02-05T10:01:19.608Z,2.20
2023-02-05T10:03:49.602Z,2.30
2023-02-05T10:06:40.728Z,2.28
2023-02-05T10:09:16.870Z,2.35
2023-02-05T10:11:50.363Z,2.40
2023-02-05T10:14:25.579Z,2.67
2023-02-05T10:17:04.917Z,2.90
2023-02-05T10:19:50.997Z,3.04
2023-02-05T10:22:23.581Z,3.19
2023-02-05T10:25:12.205Z,3.12
2023-02-05T10:27:43.739Z,3.08
2023-02-05T10:30:19.611Z,3.14
2023-02-05T10:32:57.605Z,3.22
2023-02-05T10:35:30.718Z,3.09
2023-02-05T10:37:58.665Z,3.18
2023-02-05T10:40:30.937Z,3.27
2023-02-05T10:43:02.785Z,3.37
2023-02-05T10:45:31.229Z,3.52
2023-02-05T10:48:10.002Z,3.56
2023-02-05T10:50:49.568Z,3.71
2023-02-05T10:53:24.700Z,3.81
2023-02-05T10:55:52.328Z,3.95
2023-02-05T10:58:38.129Z,4.11
2023-02-05T11:01:06.887Z,4.20
2023-02-05T11:03:36.779Z,4.21
2023-02-05T11:06:09.099Z,4.18
2023-02-05T11:08:39.420Z,4.27
2023-02-05T11:11:07.766Z,4.34
2023-02-05T11:13:41.140Z,4.18
2023-02-05T11:16:10.927Z,4.25
2023-02-05T11:18:42.425Z,4.27
2023-02-05T11:21:10.697Z,4.30
2023-02-05T11:23:41.058Z,4.33
2023-02-05T11:26:10.645Z,4.39
2023-02-05T11:28:39.703Z,4.40
2023-02-05T11:31:26.444Z,4.41
2023-02-05T11:34:11.988Z,4.40
2023-02-05T11:36:40.629Z,4.45
2023-02-05T11:39:08.456Z,4.50
2023-02-05T11:41:48.272Z,4.54
2023-02-05T11:44:19.446Z,4.53
2023-02-05T11:46:50.287Z,4.52
2023-02-05T11:49:23.172Z,4.54
2023-02-05T11:51:54.272Z,4.55
2023-02-05T11:54:23.994Z,4.42
2023-02-05T11:57:07.746Z,4.38
2023-02-05T11:59:36.431Z,4.40
2023-02-05T12:02:29.338Z,4.33
2023-02-05T12:05:00.362Z,4.33
2023-02-05T12:07:30.531Z,4.35
2023-02-05T12:09:59.796Z,4.35
2023-02-05T12:12:32.570Z,4.34
2023-02-05T12:15:05.715Z,4.37
2023-02-05T12:17:39.813Z,4.29
2023-02-05T12:20:17.193Z,4.39
2023-02-05T12:22:57.095Z,4.37
2023-02-05T12:25:27.468Z,4.35
2023-02-05T12:28:05.796Z,4.25
2023-02-05T12:30:45.444Z,3.67
2023-02-05T12:33:30.110Z,3.82
2023-02-05T12:36:09.213Z,3.92
2023-02-05T12:38:47.752Z,3.89
2023-02-05T12:41:26.553Z,3.97
2023-02-05T12:43:58.152Z,3.94
2023-02-05T12:46:40.299Z,3.86
2023-02-05T12:49:22.431Z,3.89
2023-02-05T12:52:02.632Z,3.84
2023-02-05T12:54:51.283Z,3.82
2023-02-05T12:57:20.541Z,3.80
2023-02-05T12:59:51.175Z,3.78
2023-02-05T13:02:24.978Z,3.76
2023-02-05T13:04:57.934Z,3.73
2023-02-05T13:07:31.836Z,3.62
2023-02-05T13:10:01.853Z,3.52
2023-02-05T13:12:33.698Z,3.48
2023-02-05T13:15:08.601Z,3.49
2023-02-05T13:17:38.554Z,3.44
2023-02-05T13:20:12.252Z,3.40
2023-02-05T13:23:04.370Z,3.28
2023-02-05T13:25:52.612Z,3.17
2023-02-05T13:28:43.315Z,3.08
2023-02-05T13:31:16.752Z,2.99
2023-02-05T13:33:44.742Z,2.88
2023-02-05T13:36:41.568Z,2.72
2023-02-05T13:39:26.459Z,2.66
2023-02-05T13:42:19.024Z,2.52
2023-02-05T13:45:25.876Z,2.45
2023-02-05T13:48:26.856Z,2.32
2023-02-05T13:51:20.439Z,2.33
2023-02-05T13:53:57.296Z,2.12
2023-02-05T13:56:41.445Z,1.97
2023-02-05T13:59:14.091Z,1.96
2023-02-05T14:01:44.192Z,1.92
2023-02-05T14:04:20.584Z,1.97
2023-02-05T14:06:56.266Z,1.98
2023-02-05T14:09:25.855Z,1.95
2023-02-05T14:11:56.972Z,1.90
2023-02-05T14:14:28.834Z,1.87
2023-02-05T14:16:58.084Z,1.89
2023-02-05T14:19:28.324Z,1.82
2023-02-05T14:27:49.251Z,1.90
2023-02-05T14:30:46.216Z,1.92
2023-02-05T14:33:38.522Z,1.91
2023-02-05T14:36:28.255Z,1.92
2023-02-05T14:38:57.767Z,1.95
2023-02-05T14:41:27.402Z,2.03
2023-02-05T14:43:58.353Z,2.09
2023-02-05T14:46:31.296Z,2.14
2023-02-05T14:49:00.508Z,2.17
2023-02-05T14:51:32.490Z,2.17
2023-02-05T14:54:02.195Z,2.18
2023-02-05T14:56:34.156Z,2.20
2023-02-05T14:59:07.106Z,2.23
2023-02-05T15:01:46.328Z,2.26
2023-02-05T15:04:27.715Z,2.28
2023-02-05T15:06:57.249Z,2.29
2023-02-05T15:09:35.037Z,2.31
2023-02-05T15:12:19.522Z,2.33
2023-02-05T15:14:54.187Z,2.40
2023-02-05T15:17:54.579Z,2.44
2023-02-05T15:20:27.139Z,2.38
2023-02-05T15:22:57.788Z,2.26
2023-02-05T15:25:43.699Z,2.19
2023-02-05T15:28:19.891Z,2.22
2023-02-05T15:30:55.153Z,2.29
2023-02-05T15:33:30.338Z,2.34
2023-02-05T15:35:59.238Z,2.24
2023-02-05T15:38:32.624Z,2.10
2023-02-05T15:41:01.350Z,2.11
2023-02-05T15:43:29.050Z,2.11
2023-02-05T15:46:02.865Z,2.07
2023-02-05T15:48:32.228Z,2.10
2023-02-05T15:51:03.343Z,2.12
2023-02-05T15:53:38.275Z,2.09
2023-02-05T15:56:09.705Z,2.06
2023-02-05T15:58:37.801Z,2.05
2023-02-05T16:01:07.665Z,2.04
2023-02-05T16:03:38.892Z,1.89
2023-02-05T16:06:07.738Z,1.94
2023-02-05T16:08:35.569Z,1.97
2023-02-05T16:11:05.359Z,1.96
2023-02-05T16:13:32.999Z,1.93
2023-02-05T16:16:02.749Z,1.91
2023-02-05T16:18:38.365Z,1.86
2023-02-05T16:21:09.847Z,1.86
2023-02-05T16:23:40.483Z,1.87
2023-02-05T16:26:13.491Z,1.89
2023-02-05T16:28:43.454Z,1.87
2023-02-05T16:31:17.061Z,1.82
2023-02-05T16:33:49.451Z,1.84
2023-02-05T16:36:19.742Z,1.84
2023-02-05T16:38:51.447Z,1.85
2023-02-05T16:41:22.075Z,1.87
2023-02-05T16:43:51.673Z,1.88
2023-02-05T16:46:29.795Z,1.89
2023-02-05T16:49:01.022Z,1.89
2023-02-05T16:51:35.472Z,1.88
2023-02-05T16:54:04.982Z,1.80
2023-02-05T16:56:35.825Z,1.79
2023-02-05T16:59:06.664Z,1.79
2023-02-05T17:01:39.153Z,1.79
2023-02-05T17:04:08.614Z,1.78
2023-02-05T17:06:38.012Z,1.79
2023-02-05T17:09:06.345Z,1.76
2023-02-05T17:11:37.380Z,1.75
2023-02-05T17:14:14.541Z,1.75
2023-02-05T17:16:43.505Z,1.74
2023-02-05T17:19:25.829Z,1.72
2023-02-05T17:22:12.032Z,1.60
2023-02-05T17:24:39.656Z,1.56
2023-02-05T17:27:10.575Z,1.41
2023-02-05T17:29:38.870Z,1.31
2023-02-05T17:32:06.780Z,1.32
2023-02-05T17:34:35.780Z,1.36
2023-02-05T17:37:05.121Z,1.39
2023-02-05T17:39:32.880Z,1.40
2023-02-05T17:42:07.754Z,1.40
2023-02-05T17:44:35.793Z,1.36
2023-02-05T17:47:03.815Z,1.41
2023-02-05T17:49:32.038Z,1.44
2023-02-05T17:52:00.985Z,1.44
2023-02-05T17:54:28.671Z,1.45
2023-02-05T17:56:58.079Z,1.43
2023-02-05T17:59:27.025Z,1.38
2023-02-05T18:01:54.726Z,1.34
2023-02-05T18:04:22.509Z,1.35
2023-02-05T18:06:50.576Z,1.35
2023-02-05T18:09:20.048Z,1.33
2023-02-05T18:11:47.698Z,1.27
2023-02-05T18:14:15.883Z,1.23
2023-02-05T18:16:43.661Z,1.25
2023-02-05T18:19:11.539Z,1.28
2023-02-05T18:21:39.138Z,1.28
2023-02-05T18:24:07.217Z,1.25
2023-02-05T18:26:36.321Z,1.24
2023-02-05T18:29:04.000Z,1.26
2023-02-05T18:31:32.898Z,1.27
2023-02-05T18:34:00.633Z,1.27
2023-02-05T18:36:28.228Z,1.23
2023-02-05T18:38:57.558Z,1.20
2023-02-05T18:41:25.872Z,1.21
2023-02-05T18:43:56.093Z,1.24
2023-02-05T18:46:23.929Z,1.25
2023-02-05T18:48:51.703Z,1.28
2023-02-05T18:51:21.880Z,1.30
2023-02-05T18:53:50.239Z,1.33
2023-02-05T18:56:19.418Z,1.38
2023-02-05T18:58:52.233Z,1.42
2023-02-05T19:01:21.481Z,1.45
2023-02-05T19:03:49.212Z,1.46
2023-02-05T19:06:19.166Z,1.50
2023-02-05T19:08:46.745Z,1.52
2023-02-05T19:11:16.543Z,1.55
2023-02-05T19:13:44.226Z,1.53
2023-02-05T19:16:13.427Z,1.54
2023-02-05T19:18:43.572Z,1.52
2023-02-05T19:21:14.143Z,1.53
2023-02-05T19:23:43.224Z,1.49
2023-02-05T19:26:13.813Z,1.45
2023-02-05T19:28:42.015Z,1.50
2023-02-05T19:31:12.175Z,1.48
2023-02-05T19:33:40.533Z,1.40
2023-02-05T19:36:11.125Z,1.38
2023-02-05T19:38:40.090Z,1.41
2023-02-05T19:41:09.215Z,1.46
2023-02-05T19:43:37.081Z,1.44
2023-02-05T19:46:05.493Z,1.40
2023-02-05T19:48:33.157Z,1.40
2023-02-05T19:51:04.532Z,1.42
2023-02-05T19:53:34.091Z,1.44
2023-02-05T19:56:07.104Z,1.44
2023-02-05T19:58:34.950Z,1.38
2023-02-05T20:01:02.570Z,1.39
2023-02-05T20:03:30.567Z,1.35
2023-02-05T20:06:00.998Z,1.37
2023-02-05T20:08:29.364Z,1.35
2023-02-05T20:11:01.927Z,1.36
2023-02-05T20:13:29.667Z,1.38
2023-02-05T20:15:57.456Z,1.42
2023-02-05T20:18:25.057Z,1.43
2023-02-05T20:20:52.647Z,1.39
2023-02-05T20:23:21.031Z,1.34
2023-02-05T20:25:54.351Z,1.30
2023-02-05T20:28:24.167Z,1.28
2023-02-05T20:31:09.752Z,1.34
2023-02-05T20:33:37.924Z,1.40
2023-02-05T20:36:07.211Z,1.36
2023-02-05T20:38:34.990Z,1.41
2023-02-05T20:41:11.694Z,1.39
2023-02-05T20:44:20.018Z,1.43
2023-02-05T20:46:49.145Z,1.47
2023-02-05T20:49:16.873Z,1.51
2023-02-05T20:51:44.890Z,1.51
2023-02-05T20:54:13.481Z,1.53
2023-02-05T20:56:41.510Z,1.53
2023-02-05T20:59:10.324Z,1.48
2023-02-05T21:01:39.408Z,1.45
2023-02-05T21:04:10.322Z,1.45
2023-02-05T21:06:40.689Z,1.45
2023-02-05T21:09:09.114Z,1.42
2023-02-05T21:11:37.139Z,1.40
2023-02-05T21:14:05.407Z,1.33
2023-02-05T21:16:33.834Z,1.24
2023-02-05T21:19:01.507Z,1.22
2023-02-05T21:21:32.669Z,1.20
2023-02-05T21:24:01.764Z,1.10
2023-02-05T21:26:31.500Z,1.07
2023-02-05T21:29:01.354Z,0.95
2023-02-05T21:31:33.834Z,0.94
2023-02-05T21:34:01.824Z,0.88
2023-02-05T21:36:31.210Z,0.85
2023-02-05T21:38:58.915Z,0.87
2023-02-05T21:41:27.154Z,0.91
2023-02-05T21:43:56.439Z,0.96
2023-02-05T21:46:25.128Z,0.95
2023-02-05T21:48:54.335Z,0.96
2023-02-05T21:51:23.380Z,0.99
2023-02-05T21:53:57.043Z,1.00
2023-02-05T21:56:26.357Z,0.96
2023-02-05T21:58:54.004Z,0.96
2023-02-05T22:01:23.936Z,0.99
2023-02-05T22:03:53.197Z,0.99
2023-02-05T22:06:21.795Z,1.00
2023-02-05T22:08:50.869Z,1.01
2023-02-05T22:11:20.950Z,1.02
2023-02-05T22:13:49.976Z,1.02
2023-02-05T22:16:20.221Z,1.03
2023-02-05T22:18:48.343Z,0.99
2023-02-05T22:21:18.474Z,0.94
2023-02-05T22:23:49.047Z,0.93
2023-02-05T22:26:17.604Z,0.93
2023-02-05T22:28:46.817Z,0.92
2023-02-05T22:31:16.342Z,0.92
2023-02-05T22:33:45.595Z,0.92
2023-02-05T22:36:15.235Z,0.92
2023-02-05T22:38:43.606Z,0.91
2023-02-05T22:41:12.309Z,0.93
2023-02-05T22:43:40.232Z,0.92
2023-02-05T22:46:11.207Z,0.93
2023-02-05T22:48:40.122Z,0.96
2023-02-05T22:51:09.808Z,0.95
2023-02-05T22:53:38.149Z,0.95
2023-02-05T22:56:08.919Z,0.96
2023-02-05T22:58:36.624Z,0.95
2023-02-05T23:01:09.870Z,0.93
2023-02-05T23:03:37.578Z,0.88
2023-02-05T23:06:09.732Z,0.88
2023-02-05T23:08:37.478Z,0.87
2023-02-05T23:11:06.539Z,0.87
2023-02-05T23:13:34.126Z,0.84
2023-02-05T23:16:07.693Z,0.84
2023-02-05T23:18:36.983Z,0.85
2023-02-05T23:21:08.086Z,0.83
2023-02-05T23:23:35.659Z,0.86
2023-02-05T23:26:07.094Z,0.84
2023-02-05T23:28:34.765Z,0.79
2023-02-05T23:31:02.505Z,0.78
2023-02-05T23:33:30.329Z,0.79
2023-02-05T23:35:59.474Z,0.77
2023-02-05T23:38:27.594Z,0.67
2023-02-05T23:40:56.235Z,0.72
2023-02-05T23:43:24.482Z,0.72
2023-02-05T23:45:52.963Z,0.70
2023-02-05T23:48:20.772Z,0.69
2023-02-05T23:50:50.323Z,0.68
2023-02-05T23:53:20.992Z,0.59
2023-02-05T23:55:50.035Z,0.52
2023-02-05T23:58:19.100Z,0.51
